createdAt,value
2023-01-29T00:00:11.858Z,23.30
2023-01-29T00:03:03.217Z,22.80
2023-01-29T00:05:31.821Z,25.90
2023-01-29T00:07:59.981Z,27.20
2023-01-29T00:10:28.192Z,26.20
2023-01-29T00:12:56.366Z,27.00
2023-01-29T00:15:24.586Z,25.10
2023-01-29T00:17:52.764Z,23.20
2023-01-29T00:20:20.974Z,23.50
2023-01-29T00:22:49.554Z,23.70
2023-01-29T00:25:17.713Z,24.30
2023-01-29T00:27:45.948Z,21.20
2023-01-29T00:30:16.535Z,23.40
2023-01-29T00:32:45.936Z,20.60
2023-01-29T00:35:14.041Z,18.70
2023-01-29T00:37:42.581Z,20.70
2023-01-29T00:40:11.603Z,22.20
2023-01-29T00:42:58.334Z,21.90
2023-01-29T00:45:26.484Z,24.60
2023-01-29T00:47:54.651Z,24.90
2023-01-29T00:50:22.773Z,25.40
2023-01-29T00:52:52.934Z,25.20
2023-01-29T00:55:21.219Z,20.10
2023-01-29T00:57:49.880Z,26.20
2023-01-29T01:00:19.321Z,27.00
2023-01-29T01:03:05.858Z,24.10
2023-01-29T01:05:34.986Z,25.40
2023-01-29T01:08:03.425Z,26.20
2023-01-29T01:10:33.378Z,30.80
2023-01-29T01:13:05.442Z,30.60
2023-01-29T01:15:40.110Z,28.30
2023-01-29T01:18:08.233Z,30.30
2023-01-29T01:20:36.662Z,30.50
2023-01-29T01:23:05.414Z,34.40
2023-01-29T01:25:33.847Z,36.10
2023-01-29T01:28:02.114Z,45.00
2023-01-29T01:30:30.263Z,39.10
2023-01-29T01:32:58.364Z,34.60
2023-01-29T01:35:26.619Z,32.80
2023-01-29T01:37:54.868Z,38.20
2023-01-29T01:40:25.571Z,32.80
2023-01-29T01:42:57.114Z,40.30
2023-01-29T01:45:35.731Z,38.20
2023-01-29T01:48:27.402Z,37.20
2023-01-29T01:51:06.520Z,37.80
2023-01-29T01:53:45.033Z,35.40
2023-01-29T01:56:21.383Z,35.20
2023-01-29T01:58:55.561Z,34.10
2023-01-29T02:01:29.942Z,35.30
2023-01-29T02:04:26.282Z,31.90
2023-01-29T02:07:14.543Z,32.00
2023-01-29T02:09:52.617Z,34.10
2023-01-29T02:12:21.628Z,30.70
2023-01-29T02:14:51.931Z,36.30
2023-01-29T02:17:20.668Z,39.70
2023-01-29T02:20:12.101Z,38.20
2023-01-29T02:22:56.100Z,35.60
2023-01-29T02:26:16.551Z,31.10
2023-01-29T02:29:22.554Z,34.40
2023-01-29T02:32:54.797Z,34.80
2023-01-29T02:35:30.016Z,28.10
2023-01-29T02:38:24.426Z,32.40
2023-01-29T02:41:18.122Z,26.70
2023-01-29T02:44:11.589Z,27.10
2023-01-29T02:47:05.496Z,25.10
2023-01-29T02:49:46.049Z,28.60
2023-01-29T02:52:31.057Z,26.00
2023-01-29T02:55:40.263Z,27.50
2023-01-29T02:58:33.297Z,28.20
2023-01-29T03:01:30.298Z,32.20
2023-01-29T03:04:06.273Z,29.20
2023-01-29T03:06:52.076Z,27.50
2023-01-29T03:09:33.814Z,28.70
2023-01-29T03:12:29.216Z,23.90
2023-01-29T03:15:12.509Z,26.50
2023-01-29T03:17:58.189Z,30.30
2023-01-29T03:20:35.648Z,32.70
2023-01-29T03:23:15.246Z,32.80
2023-01-29T03:26:02.956Z,28.00
2023-01-29T03:28:51.762Z,25.90
2023-01-29T03:31:39.593Z,30.00
2023-01-29T03:34:24.238Z,25.50
2023-01-29T03:36:59.907Z,27.90
2023-01-29T03:39:29.845Z,26.00
2023-01-29T03:42:30.287Z,34.50
2023-01-29T03:45:09.748Z,32.20
2023-01-29T03:47:47.345Z,30.00
2023-01-29T03:50:56.629Z,32.10
2023-01-29T03:53:39.730Z,33.80
2023-01-29T03:56:27.701Z,34.80
2023-01-29T03:59:03.536Z,30.00
2023-01-29T04:01:58.403Z,27.20
2023-01-29T04:04:32.157Z,26.80
2023-01-29T04:07:24.452Z,28.80
2023-01-29T04:10:07.348Z,33.90
2023-01-29T04:12:52.572Z,34.20
2023-01-29T04:15:24.661Z,30.00
2023-01-29T04:17:55.894Z,26.70
2023-01-29T04:21:01.787Z,28.10
2023-01-29T04:23:29.979Z,33.20
2023-01-29T04:26:25.451Z,32.20
2023-01-29T04:29:29.813Z,30.80
2023-01-29T04:32:13.692Z,30.90
2023-01-29T04:35:03.592Z,34.00
2023-01-29T04:38:07.013Z,32.40
2023-01-29T04:41:08.451Z,29.50
2023-01-29T04:43:53.342Z,29.60
2023-01-29T04:46:29.854Z,29.10
2023-01-29T04:49:30.265Z,27.70
2023-01-29T04:51:58.325Z,25.30
2023-01-29T04:55:05.213Z,28.10
2023-01-29T04:58:01.287Z,31.40
2023-01-29T05:00:44.795Z,26.70
2023-01-29T05:05:49.109Z,28.10
2023-01-29T05:08:23.036Z,28.10
2023-01-29T05:10:54.240Z,28.10
2023-01-29T05:13:24.135Z,25.30
2023-01-29T05:16:42.167Z,26.00
2023-01-29T05:19:16.146Z,32.50
2023-01-29T05:21:48.191Z,27.30
2023-01-29T05:24:20.971Z,28.00
2023-01-29T05:27:11.103Z,29.60
2023-01-29T05:29:47.096Z,26.90
2023-01-29T05:32:16.070Z,31.90
2023-01-29T05:34:44.189Z,26.00
2023-01-29T05:37:12.257Z,26.30
2023-01-29T05:39:40.374Z,27.60
2023-01-29T05:42:08.487Z,24.00
2023-01-29T05:44:36.622Z,27.20
2023-01-29T05:47:04.795Z,27.80
2023-01-29T05:49:33.021Z,29.30
2023-01-29T05:52:01.194Z,25.30
2023-01-29T05:54:29.303Z,26.10
2023-01-29T05:56:57.467Z,24.10
2023-01-29T05:59:25.639Z,26.10
2023-01-29T06:01:53.790Z,25.90
2023-01-29T06:04:21.909Z,23.20
2023-01-29T06:06:49.985Z,66.80
2023-01-29T06:09:18.074Z,35.40
2023-01-29T06:11:46.139Z,33.40
2023-01-29T06:14:14.240Z,29.20
2023-01-29T06:16:42.345Z,29.90
2023-01-29T06:19:10.447Z,26.00
2023-01-29T06:21:38.563Z,27.10
2023-01-29T06:24:07.233Z,28.70
2023-01-29T06:26:35.356Z,28.90
2023-01-29T06:29:03.470Z,27.10
2023-01-29T06:31:38.754Z,25.80
2023-01-29T06:34:08.683Z,20.50
2023-01-29T06:36:36.928Z,23.40
2023-01-29T06:39:05.169Z,23.20
2023-01-29T06:41:33.585Z,25.80
2023-01-29T06:44:01.868Z,19.30
2023-01-29T06:46:30.177Z,24.30
2023-01-29T06:49:02.495Z,19.90
2023-01-29T06:51:30.726Z,22.80
2023-01-29T06:53:58.839Z,22.20
2023-01-29T06:56:27.254Z,20.20
2023-01-29T06:58:55.385Z,21.50
2023-01-29T07:01:35.117Z,17.70
2023-01-29T07:04:04.670Z,19.50
2023-01-29T07:06:33.421Z,18.00
2023-01-29T07:09:02.092Z,21.50
2023-01-29T07:11:30.599Z,22.80
2023-01-29T07:13:58.726Z,28.00
2023-01-29T07:16:26.989Z,38.40
2023-01-29T07:18:55.123Z,31.90
2023-01-29T07:21:23.412Z,26.20
2023-01-29T07:23:51.580Z,21.20
2023-01-29T07:26:19.864Z,20.30
2023-01-29T07:28:47.960Z,21.70
2023-01-29T07:31:16.374Z,20.40
2023-01-29T07:33:44.800Z,24.60
2023-01-29T07:36:15.871Z,26.50
2023-01-29T07:38:44.007Z,26.00
2023-01-29T07:41:12.710Z,22.60
2023-01-29T07:43:40.878Z,22.30
2023-01-29T07:46:09.176Z,22.40
2023-01-29T07:48:37.658Z,19.70
2023-01-29T07:51:06.080Z,21.40
2023-01-29T07:53:34.233Z,20.10
2023-01-29T07:56:03.447Z,20.20
2023-01-29T07:58:31.718Z,19.40
2023-01-29T08:00:59.825Z,19.30
2023-01-29T08:03:27.928Z,19.00
2023-01-29T08:05:58.053Z,18.10
2023-01-29T08:08:26.319Z,24.20
2023-01-29T08:10:54.705Z,26.20
2023-01-29T08:13:22.812Z,22.50
2023-01-29T08:15:50.912Z,20.10
2023-01-29T08:18:19.011Z,19.60
2023-01-29T08:20:47.134Z,22.80
2023-01-29T08:23:16.610Z,19.30
2023-01-29T08:25:44.872Z,23.70
2023-01-29T08:28:13.162Z,20.50
2023-01-29T08:30:41.495Z,20.90
2023-01-29T08:33:09.938Z,21.80
2023-01-29T08:35:38.111Z,19.70
2023-01-29T08:38:06.220Z,19.70
2023-01-29T08:40:35.586Z,21.50
2023-01-29T08:43:08.767Z,22.90
2023-01-29T08:45:41.572Z,21.70
2023-01-29T08:48:11.113Z,21.40
2023-01-29T08:50:39.478Z,22.70
2023-01-29T08:53:09.554Z,21.60
2023-01-29T08:55:41.918Z,17.60
2023-01-29T08:58:12.452Z,21.30
2023-01-29T09:00:40.606Z,18.90
2023-01-29T09:03:09.914Z,19.50
2023-01-29T09:05:40.004Z,20.40
2023-01-29T09:08:09.663Z,18.20
2023-01-29T09:10:37.816Z,18.70
2023-01-29T09:13:05.958Z,19.20
2023-01-29T09:15:34.056Z,18.70
2023-01-29T09:18:05.755Z,20.30
2023-01-29T09:20:34.269Z,25.60
2023-01-29T09:23:10.924Z,18.80
2023-01-29T09:25:39.069Z,20.60
2023-01-29T09:28:07.183Z,21.60
2023-01-29T09:30:37.906Z,17.60
2023-01-29T09:33:07.554Z,19.20
2023-01-29T09:35:37.166Z,23.30
2023-01-29T09:38:05.254Z,20.10
2023-01-29T09:40:41.223Z,18.90
2023-01-29T09:43:53.817Z,19.00
2023-01-29T09:46:52.876Z,17.40
2023-01-29T09:49:41.686Z,17.80
2023-01-29T09:52:22.698Z,22.20
2023-01-29T09:55:50.447Z,20.00
2023-01-29T09:58:27.349Z,20.50
2023-01-29T10:01:19.043Z,20.60
2023-01-29T10:04:02.542Z,18.00
2023-01-29T10:09:57.533Z,20.50
2023-01-29T10:12:46.778Z,19.30
2023-01-29T10:15:43.016Z,20.00
2023-01-29T10:18:48.473Z,19.10
2023-01-29T10:21:50.978Z,25.70
2023-01-29T10:24:35.517Z,21.00
2023-01-29T10:27:12.209Z,18.70
2023-01-29T10:29:43.450Z,21.80
2023-01-29T10:32:18.493Z,20.60
2023-01-29T10:35:13.909Z,18.80
2023-01-29T10:37:43.928Z,17.90
2023-01-29T10:40:25.639Z,20.00
2023-01-29T10:43:11.114Z,14.70
2023-01-29T10:46:14.653Z,20.10
2023-01-29T10:48:54.699Z,24.50
2023-01-29T10:51:42.768Z,19.70
2023-01-29T10:54:18.704Z,21.00
2023-01-29T10:57:31.219Z,20.40
2023-01-29T11:00:21.668Z,19.80
2023-01-29T11:02:51.783Z,22.10
2023-01-29T11:05:44.418Z,17.00
2023-01-29T11:08:21.789Z,18.90
2023-01-29T11:10:57.289Z,20.40
2023-01-29T11:13:32.685Z,20.30
2023-01-29T11:16:00.940Z,20.70
2023-01-29T11:18:49.159Z,20.40
2023-01-29T11:21:17.469Z,22.00
2023-01-29T11:23:46.542Z,16.40
2023-01-29T11:26:22.474Z,19.20
2023-01-29T11:28:51.541Z,21.00
2023-01-29T11:31:26.199Z,18.50
2023-01-29T11:34:04.457Z,19.20
2023-01-29T11:36:38.365Z,21.70
2023-01-29T11:39:17.541Z,21.80
2023-01-29T11:42:08.300Z,21.30
2023-01-29T11:44:43.068Z,22.50
2023-01-29T11:47:29.556Z,19.50
2023-01-29T11:50:02.756Z,20.40
2023-01-29T11:55:21.470Z,18.10
2023-01-29T11:58:29.547Z,22.50
2023-01-29T12:00:59.996Z,16.60
2023-01-29T12:03:40.662Z,15.50
2023-01-29T12:06:32.906Z,15.00
2023-01-29T12:09:03.926Z,15.40
2023-01-29T12:11:35.493Z,14.70
2023-01-29T12:14:22.294Z,15.60
2023-01-29T12:16:55.418Z,16.30
2023-01-29T12:19:44.270Z,17.60
2023-01-29T12:22:33.184Z,21.30
2023-01-29T12:25:13.352Z,19.10
2023-01-29T12:28:09.570Z,20.00
2023-01-29T12:30:53.904Z,19.30
2023-01-29T12:33:38.390Z,18.40
2023-01-29T12:36:53.085Z,17.40
2023-01-29T12:39:21.934Z,20.50
2023-01-29T12:42:04.452Z,23.10
2023-01-29T12:44:43.623Z,21.70
2023-01-29T12:47:25.240Z,19.30
2023-01-29T12:50:01.247Z,19.20
2023-01-29T12:53:06.108Z,21.60
2023-01-29T12:55:44.700Z,18.00
2023-01-29T12:58:18.210Z,19.00
2023-01-29T13:00:51.039Z,15.80
2023-01-29T13:03:25.335Z,18.40
2023-01-29T13:06:02.595Z,20.20
2023-01-29T13:08:37.637Z,30.90
2023-01-29T13:11:18.188Z,20.70
2023-01-29T13:14:03.503Z,23.10
2023-01-29T13:16:40.880Z,18.50
2023-01-29T13:19:43.457Z,16.10
2023-01-29T13:22:26.274Z,15.10
2023-01-29T13:25:04.104Z,19.40
2023-01-29T13:27:35.527Z,15.50
2023-01-29T13:30:04.775Z,16.00
2023-01-29T13:32:35.946Z,17.20
2023-01-29T13:35:15.439Z,14.80
2023-01-29T13:37:55.437Z,17.20
2023-01-29T13:40:30.319Z,17.90
2023-01-29T13:43:00.395Z,16.60
2023-01-29T13:45:43.755Z,18.90
2023-01-29T13:48:32.553Z,18.10
2023-01-29T13:51:03.912Z,25.50
2023-01-29T13:53:40.632Z,21.90
2023-01-29T13:56:33.477Z,17.30
2023-01-29T13:59:06.589Z,17.80
2023-01-29T14:04:32.497Z,18.40
2023-01-29T14:07:06.563Z,14.50
2023-01-29T14:09:37.611Z,18.40
2023-01-29T14:12:25.643Z,16.70
2023-01-29T14:14:59.514Z,15.90
2023-01-29T14:17:29.237Z,13.20
2023-01-29T14:20:19.223Z,16.00
2023-01-29T14:22:57.754Z,16.20
2023-01-29T14:25:38.998Z,14.10
2023-01-29T14:28:29.524Z,16.40
2023-01-29T14:30:59.101Z,13.90
2023-01-29T14:33:41.727Z,15.80
2023-01-29T14:36:14.836Z,13.00
2023-01-29T14:38:52.672Z,17.30
2023-01-29T14:41:34.665Z,13.40
2023-01-29T14:44:55.973Z,14.50
2023-01-29T14:47:27.192Z,11.40
2023-01-29T14:49:58.529Z,16.50
2023-01-29T14:52:41.668Z,15.40
2023-01-29T14:55:37.686Z,15.60
2023-01-29T14:58:11.615Z,16.60
2023-01-29T15:00:45.021Z,13.00
2023-01-29T15:03:29.665Z,17.10
2023-01-29T15:05:59.546Z,15.40
2023-01-29T15:08:40.680Z,16.00
2023-01-29T15:11:36.509Z,16.20
2023-01-29T15:14:28.830Z,12.10
2023-01-29T15:17:09.169Z,16.30
2023-01-29T15:19:48.598Z,15.30
2023-01-29T15:22:23.300Z,11.10
2023-01-29T15:25:15.355Z,16.10
2023-01-29T15:27:45.547Z,12.40
2023-01-29T15:30:33.051Z,16.10
2023-01-29T15:33:03.162Z,13.70
2023-01-29T15:35:37.283Z,16.50
2023-01-29T15:38:18.342Z,16.50
2023-01-29T15:41:21.433Z,15.30
2023-01-29T15:43:57.154Z,15.10
2023-01-29T15:46:40.370Z,21.60
2023-01-29T15:49:16.588Z,17.40
2023-01-29T15:51:46.449Z,16.50
2023-01-29T15:54:17.153Z,17.10
2023-01-29T15:56:51.187Z,17.30
2023-01-29T15:59:25.258Z,19.60
2023-01-29T16:01:54.380Z,18.90
2023-01-29T16:04:31.435Z,17.10
2023-01-29T16:07:01.789Z,14.70
2023-01-29T16:09:30.144Z,18.40
2023-01-29T16:11:59.696Z,18.60
2023-01-29T16:14:28.701Z,17.40
2023-01-29T16:16:56.879Z,16.40
2023-01-29T16:19:29.619Z,15.50
2023-01-29T16:22:05.388Z,17.90
2023-01-29T16:24:37.244Z,17.20
2023-01-29T16:27:14.369Z,14.90
2023-01-29T16:29:42.508Z,15.40
2023-01-29T16:32:13.786Z,14.40
2023-01-29T16:34:45.531Z,12.50
2023-01-29T16:37:38.959Z,13.40
2023-01-29T16:40:33.069Z,16.40
2023-01-29T16:43:19.887Z,10.90
2023-01-29T16:46:52.263Z,11.80
2023-01-29T16:49:29.163Z,14.90
2023-01-29T16:52:27.980Z,11.80
2023-01-29T16:55:12.090Z,11.70
2023-01-29T16:57:41.262Z,13.30
2023-01-29T17:00:22.980Z,15.10
2023-01-29T17:02:56.414Z,12.70
2023-01-29T17:05:35.641Z,13.00
2023-01-29T17:08:05.845Z,11.50
2023-01-29T17:10:35.994Z,13.90
2023-01-29T17:13:08.843Z,14.00
2023-01-29T17:15:45.849Z,9.70
2023-01-29T17:18:25.103Z,10.80
2023-01-29T17:20:53.684Z,11.20
2023-01-29T17:23:23.111Z,11.00
2023-01-29T17:25:51.906Z,11.40
2023-01-29T17:28:20.014Z,11.60
2023-01-29T17:31:00.355Z,11.00
2023-01-29T17:33:42.752Z,11.30
2023-01-29T17:36:13.953Z,12.20
2023-01-29T17:38:42.530Z,11.10
2023-01-29T17:41:25.915Z,11.90
2023-01-29T17:46:22.865Z,11.60
2023-01-29T17:48:51.248Z,14.10
2023-01-29T17:51:19.836Z,14.10
2023-01-29T17:53:47.921Z,13.90
2023-01-29T17:56:30.287Z,14.70
2023-01-29T17:58:58.527Z,16.30
2023-01-29T18:01:26.711Z,15.60
2023-01-29T18:03:54.881Z,12.00
2023-01-29T18:06:29.935Z,13.50
2023-01-29T18:08:58.559Z,14.30
2023-01-29T18:11:27.196Z,10.00
2023-01-29T18:13:57.288Z,14.60
2023-01-29T18:16:25.974Z,12.60
2023-01-29T18:18:55.060Z,21.70
2023-01-29T18:21:23.204Z,61.40
2023-01-29T18:23:53.467Z,32.40
2023-01-29T18:26:22.750Z,20.90
2023-01-29T18:28:50.901Z,22.20
2023-01-29T18:31:19.059Z,20.50
2023-01-29T18:33:47.472Z,21.40
2023-01-29T18:36:15.748Z,14.10
2023-01-29T18:38:43.891Z,14.10
2023-01-29T18:41:12.133Z,12.70
2023-01-29T18:43:41.995Z,13.00
2023-01-29T18:46:10.725Z,11.60
2023-01-29T18:48:40.438Z,11.80
2023-01-29T18:51:09.983Z,12.30
2023-01-29T18:53:38.132Z,9.60
2023-01-29T18:56:06.817Z,15.00
2023-01-29T18:58:36.628Z,12.60
2023-01-29T19:01:11.674Z,13.50
2023-01-29T19:03:41.489Z,10.70
2023-01-29T19:06:11.671Z,12.70
2023-01-29T19:08:41.188Z,9.60
2023-01-29T19:11:09.733Z,12.00
2023-01-29T19:13:38.169Z,11.70
2023-01-29T19:16:10.846Z,14.10
2023-01-29T19:18:39.470Z,11.90
2023-01-29T19:21:13.983Z,13.50
2023-01-29T19:23:43.707Z,14.80
2023-01-29T19:26:13.464Z,14.70
2023-01-29T19:28:41.987Z,15.40
2023-01-29T19:31:10.469Z,12.00
2023-01-29T19:33:39.425Z,14.10
2023-01-29T19:36:08.155Z,11.70
2023-01-29T19:38:38.691Z,12.30
2023-01-29T19:41:06.948Z,10.30
2023-01-29T19:43:35.242Z,14.10
2023-01-29T19:46:03.513Z,10.70
2023-01-29T19:48:31.662Z,12.60
2023-01-29T19:51:04.349Z,13.70
2023-01-29T19:53:32.640Z,18.80
2023-01-29T19:56:13.275Z,22.00
2023-01-29T19:58:41.780Z,11.50
2023-01-29T20:01:17.949Z,22.80
2023-01-29T20:03:48.640Z,20.10
2023-01-29T20:06:24.543Z,47.50
2023-01-29T20:08:53.301Z,35.50
2023-01-29T20:11:22.992Z,30.60
2023-01-29T20:13:52.741Z,22.10
2023-01-29T20:16:22.059Z,23.80
2023-01-29T20:18:50.261Z,14.00
2023-01-29T20:21:21.950Z,15.80
2023-01-29T20:23:51.734Z,12.20
2023-01-29T20:26:21.549Z,18.70
2023-01-29T20:28:50.069Z,12.80
2023-01-29T20:31:18.223Z,14.40
2023-01-29T20:33:46.436Z,15.90
2023-01-29T20:36:15.028Z,13.30
2023-01-29T20:38:43.157Z,12.00
2023-01-29T20:41:17.806Z,14.80
2023-01-29T20:43:47.354Z,13.50
2023-01-29T20:46:15.701Z,15.60
2023-01-29T20:48:43.951Z,19.20
2023-01-29T20:51:16.514Z,12.60
2023-01-29T20:53:47.003Z,14.30
2023-01-29T20:56:17.283Z,12.80
2023-01-29T20:58:46.849Z,13.70
2023-01-29T21:01:19.254Z,13.20
2023-01-29T21:03:48.405Z,12.10
2023-01-29T21:06:16.575Z,17.80
2023-01-29T21:08:44.710Z,16.00
2023-01-29T21:11:12.838Z,12.20
2023-01-29T21:13:41.054Z,14.30
2023-01-29T21:16:10.852Z,11.80
2023-01-29T21:18:39.176Z,14.10
2023-01-29T21:21:07.288Z,10.70
2023-01-29T21:23:35.420Z,11.20
2023-01-29T21:26:06.768Z,11.60
2023-01-29T21:28:35.032Z,12.20
2023-01-29T21:31:10.707Z,10.30
2023-01-29T21:33:38.878Z,9.60
2023-01-29T21:36:08.456Z,12.40
2023-01-29T21:38:37.031Z,15.60
2023-01-29T21:41:08.993Z,14.70
2023-01-29T21:43:38.205Z,21.20
2023-01-29T21:46:15.560Z,16.50
2023-01-29T21:48:43.768Z,15.60
2023-01-29T21:51:11.864Z,12.20
2023-01-29T21:53:39.998Z,11.10
2023-01-29T21:56:08.196Z,12.20
2023-01-29T21:58:36.322Z,11.30
2023-01-29T22:01:35.161Z,14.10
2023-01-29T22:03:52.755Z,12.60
2023-01-29T22:06:21.022Z,13.50
2023-01-29T22:08:50.259Z,11.90
2023-01-29T22:11:18.666Z,14.40
2023-01-29T22:13:47.156Z,14.90
2023-01-29T22:16:15.253Z,12.60
2023-01-29T22:18:43.373Z,13.70
2023-01-29T22:21:11.481Z,12.40
2023-01-29T22:23:39.583Z,10.90
2023-01-29T22:26:09.920Z,11.50
2023-01-29T22:28:38.134Z,14.70
2023-01-29T22:31:06.538Z,14.80
2023-01-29T22:33:35.112Z,16.90
2023-01-29T22:36:04.476Z,18.00
2023-01-29T22:38:32.627Z,14.80
2023-01-29T22:41:01.354Z,16.80
2023-01-29T22:43:29.530Z,14.20
2023-01-29T22:45:57.847Z,14.90
2023-01-29T22:48:26.869Z,15.30
2023-01-29T22:51:13.728Z,17.00
2023-01-29T22:53:51.317Z,19.30
2023-01-29T22:56:21.551Z,17.20
2023-01-29T22:58:55.142Z,15.80
2023-01-29T23:01:28.398Z,13.90
2023-01-29T23:03:56.949Z,14.00
2023-01-29T23:06:25.177Z,16.40
2023-01-29T23:08:53.544Z,11.20
2023-01-29T23:11:23.552Z,15.70
2023-01-29T23:13:55.493Z,13.50
2023-01-29T23:16:27.971Z,13.90
2023-01-29T23:18:57.249Z,15.70
2023-01-29T23:21:27.248Z,15.90
2023-01-29T23:23:58.263Z,15.30
2023-01-29T23:26:46.315Z,15.70
2023-01-29T23:29:15.216Z,15.20
2023-01-29T23:31:43.416Z,16.50
2023-01-29T23:34:11.623Z,20.60
2023-01-29T23:36:39.850Z,13.90
2023-01-29T23:39:08.821Z,15.40
2023-01-29T23:41:37.074Z,13.60
2023-01-29T23:44:05.360Z,15.30
2023-01-29T23:46:33.630Z,15.40
2023-01-29T23:49:02.058Z,12.80
2023-01-29T23:51:30.336Z,12.90
2023-01-29T23:53:58.452Z,14.30
2023-01-29T23:56:26.738Z,17.40
2023-01-29T23:58:57.198Z,13.80
